sensor_id;sensor_type;location;lat;lon;timestamp;temperature;humidity
22173;DHT22;11252;50.596;17.648;2023-05-16T00:02:04;9.30;92.20
22173;DHT22;11252;50.596;17.648;2023-05-16T00:04:32;9.30;92.20
22173;DHT22;11252;50.596;17.648;2023-05-16T00:06:59;9.20;92.20
22173;DHT22;11252;50.596;17.648;2023-05-16T00:09:27;9.20;92.20
22173;DHT22;11252;50.596;17.648;2023-05-16T00:11:54;9.20;92.20
22173;DHT22;11252;50.596;17.648;2023-05-16T00:14:22;9.20;92.20
22173;DHT22;11252;50.596;17.648;2023-05-16T00:16:53;9.10;92.20
22173;DHT22;11252;50.596;17.648;2023-05-16T00:19:20;9.00;92.20
22173;DHT22;11252;50.596;17.648;2023-05-16T00:21:48;9.00;92.20
22173;DHT22;11252;50.596;17.648;2023-05-16T00:24:15;9.00;92.20
22173;DHT22;11252;50.596;17.648;2023-05-16T00:26:43;8.90;92.20
22173;DHT22;11252;50.596;17.648;2023-05-16T00:29:10;8.90;92.20
22173;DHT22;11252;50.596;17.648;2023-05-16T00:31:38;8.80;92.20
22173;DHT22;11252;50.596;17.648;2023-05-16T00:34:05;8.80;92.20
22173;DHT22;11252;50.596;17.648;2023-05-16T00:36:33;8.80;92.20
22173;DHT22;11252;50.596;17.648;2023-05-16T00:39:02;8.70;92.20
22173;DHT22;11252;50.596;17.648;2023-05-16T00:41:30;8.70;92.20
22173;DHT22;11252;50.596;17.648;2023-05-16T00:43:57;8.60;92.20
22173;DHT22;11252;50.596;17.648;2023-05-16T00:46:25;8.60;92.20
22173;DHT22;11252;50.596;17.648;2023-05-16T00:48:52;8.60;92.20
22173;DHT22;11252;50.596;17.648;2023-05-16T00:51:21;8.50;92.20
22173;DHT22;11252;50.596;17.648;2023-05-16T00:53:49;8.50;92.20
22173;DHT22;11252;50.596;17.648;2023-05-16T00:56:17;8.50;92.20
22173;DHT22;11252;50.596;17.648;2023-05-16T00:58:45;8.60;92.20
22173;DHT22;11252;50.596;17.648;2023-05-16T01:01:12;8.50;92.20
22173;DHT22;11252;50.596;17.648;2023-05-16T01:03:41;8.50;92.20
22173;DHT22;11252;50.596;17.648;2023-05-16T01:06:12;8.60;92.20
22173;DHT22;11252;50.596;17.648;2023-05-16T01:08:39;8.50;92.20
22173;DHT22;11252;50.596;17.648;2023-05-16T01:11:15;8.50;92.20
22173;DHT22;11252;50.596;17.648;2023-05-16T01:25:01;8.30;92.20
22173;DHT22;11252;50.596;17.648;2023-05-16T01:27:31;8.20;92.20
22173;DHT22;11252;50.596;17.648;2023-05-16T01:30:00;8.20;92.20
22173;DHT22;11252;50.596;17.648;2023-05-16T01:32:31;8.20;92.20
22173;DHT22;11252;50.596;17.648;2023-05-16T01:34:59;8.20;92.20
22173;DHT22;11252;50.596;17.648;2023-05-16T01:37:35;8.30;92.20
22173;DHT22;11252;50.596;17.648;2023-05-16T01:40:12;8.20;92.20
22173;DHT22;11252;50.596;17.648;2023-05-16T01:42:44;8.20;92.20
22173;DHT22;11252;50.596;17.648;2023-05-16T01:45:25;8.20;92.20
22173;DHT22;11252;50.596;17.648;2023-05-16T01:48:01;8.10;92.20
22173;DHT22;11252;50.596;17.648;2023-05-16T01:50:36;8.10;92.20
22173;DHT22;11252;50.596;17.648;2023-05-16T01:53:27;8.10;92.20
22173;DHT22;11252;50.596;17.648;2023-05-16T01:55:56;8.10;92.20
22173;DHT22;11252;50.596;17.648;2023-05-16T01:58:28;8.10;92.20
22173;DHT22;11252;50.596;17.648;2023-05-16T02:01:04;8.10;92.20
22173;DHT22;11252;50.596;17.648;2023-05-16T02:03:32;8.10;92.20
22173;DHT22;11252;50.596;17.648;2023-05-16T02:06:00;8.10;92.20
22173;DHT22;11252;50.596;17.648;2023-05-16T02:08:28;8.10;92.20
22173;DHT22;11252;50.596;17.648;2023-05-16T02:10:55;8.10;92.20
22173;DHT22;11252;50.596;17.648;2023-05-16T02:13:23;8.10;92.20
22173;DHT22;11252;50.596;17.648;2023-05-16T02:15:50;8.20;92.20
22173;DHT22;11252;50.596;17.648;2023-05-16T02:18:17;8.10;92.20
22173;DHT22;11252;50.596;17.648;2023-05-16T02:20:45;8.10;92.20
22173;DHT22;11252;50.596;17.648;2023-05-16T02:23:13;8.20;92.20
22173;DHT22;11252;50.596;17.648;2023-05-16T02:25:41;8.20;92.20
22173;DHT22;11252;50.596;17.648;2023-05-16T02:28:08;8.20;92.20
22173;DHT22;11252;50.596;17.648;2023-05-16T02:30:36;8.10;92.20
22173;DHT22;11252;50.596;17.648;2023-05-16T02:33:03;8.10;92.20
22173;DHT22;11252;50.596;17.648;2023-05-16T02:35:30;8.00;92.20
22173;DHT22;11252;50.596;17.648;2023-05-16T02:37:58;8.00;92.20
22173;DHT22;11252;50.596;17.648;2023-05-16T02:40:25;7.90;92.20
22173;DHT22;11252;50.596;17.648;2023-05-16T02:42:53;7.90;92.20
22173;DHT22;11252;50.596;17.648;2023-05-16T02:45:20;8.00;92.20
22173;DHT22;11252;50.596;17.648;2023-05-16T02:47:47;8.00;92.20
22173;DHT22;11252;50.596;17.648;2023-05-16T02:50:15;8.10;92.20
22173;DHT22;11252;50.596;17.648;2023-05-16T02:52:42;8.10;92.20
22173;DHT22;11252;50.596;17.648;2023-05-16T02:55:10;8.10;92.20
22173;DHT22;11252;50.596;17.648;2023-05-16T02:57:48;8.10;92.20
22173;DHT22;11252;50.596;17.648;2023-05-16T03:00:17;8.00;92.20
22173;DHT22;11252;50.596;17.648;2023-05-16T03:02:45;8.00;92.20
22173;DHT22;11252;50.596;17.648;2023-05-16T03:05:13;7.90;92.20
22173;DHT22;11252;50.596;17.648;2023-05-16T03:07:40;7.90;92.20
22173;DHT22;11252;50.596;17.648;2023-05-16T03:10:08;7.90;92.20
22173;DHT22;11252;50.596;17.648;2023-05-16T03:12:35;7.90;92.20
22173;DHT22;11252;50.596;17.648;2023-05-16T03:15:03;8.00;92.20
22173;DHT22;11252;50.596;17.648;2023-05-16T03:17:31;8.10;92.20
22173;DHT22;11252;50.596;17.648;2023-05-16T03:19:59;8.10;92.20
22173;DHT22;11252;50.596;17.648;2023-05-16T03:22:26;8.20;92.20
22173;DHT22;11252;50.596;17.648;2023-05-16T03:24:53;8.20;92.20
22173;DHT22;11252;50.596;17.648;2023-05-16T03:27:21;8.30;92.20
22173;DHT22;11252;50.596;17.648;2023-05-16T03:29:49;8.40;92.20
22173;DHT22;11252;50.596;17.648;2023-05-16T03:32:16;8.40;92.20
22173;DHT22;11252;50.596;17.648;2023-05-16T03:34:44;8.40;92.20
22173;DHT22;11252;50.596;17.648;2023-05-16T03:37:13;8.30;92.20
22173;DHT22;11252;50.596;17.648;2023-05-16T03:39:42;8.30;92.20
22173;DHT22;11252;50.596;17.648;2023-05-16T03:42:09;8.30;92.20
22173;DHT22;11252;50.596;17.648;2023-05-16T03:44:37;8.30;92.20
22173;DHT22;11252;50.596;17.648;2023-05-16T03:47:04;8.30;92.20
22173;DHT22;11252;50.596;17.648;2023-05-16T03:49:32;8.20;92.20
22173;DHT22;11252;50.596;17.648;2023-05-16T03:51:59;8.20;92.20
22173;DHT22;11252;50.596;17.648;2023-05-16T03:54:27;8.20;92.20
22173;DHT22;11252;50.596;17.648;2023-05-16T03:56:55;8.30;92.20
22173;DHT22;11252;50.596;17.648;2023-05-16T03:59:22;8.40;92.20
22173;DHT22;11252;50.596;17.648;2023-05-16T04:01:49;8.50;92.20
22173;DHT22;11252;50.596;17.648;2023-05-16T04:04:17;8.60;92.20
22173;DHT22;11252;50.596;17.648;2023-05-16T04:06:44;8.70;92.20
22173;DHT22;11252;50.596;17.648;2023-05-16T04:09:12;8.80;92.20
22173;DHT22;11252;50.596;17.648;2023-05-16T04:11:39;8.90;92.20
22173;DHT22;11252;50.596;17.648;2023-05-16T04:14:06;8.90;92.20
22173;DHT22;11252;50.596;17.648;2023-05-16T04:16:34;9.00;92.20
22173;DHT22;11252;50.596;17.648;2023-05-16T04:19:02;9.20;92.20
22173;DHT22;11252;50.596;17.648;2023-05-16T04:21:30;9.30;92.20
22173;DHT22;11252;50.596;17.648;2023-05-16T04:23:57;9.40;92.20
22173;DHT22;11252;50.596;17.648;2023-05-16T04:26:25;9.40;92.20
22173;DHT22;11252;50.596;17.648;2023-05-16T04:28:53;9.50;92.20
22173;DHT22;11252;50.596;17.648;2023-05-16T04:31:21;9.70;92.20
22173;DHT22;11252;50.596;17.648;2023-05-16T04:33:49;9.90;92.20
22173;DHT22;11252;50.596;17.648;2023-05-16T04:36:16;10.10;92.20
22173;DHT22;11252;50.596;17.648;2023-05-16T04:38:43;10.20;92.20
22173;DHT22;11252;50.596;17.648;2023-05-16T04:41:13;10.20;92.20
22173;DHT22;11252;50.596;17.648;2023-05-16T04:43:40;10.30;92.20
22173;DHT22;11252;50.596;17.648;2023-05-16T04:46:08;10.50;92.20
22173;DHT22;11252;50.596;17.648;2023-05-16T04:48:36;10.60;92.20
22173;DHT22;11252;50.596;17.648;2023-05-16T04:51:03;10.80;92.20
22173;DHT22;11252;50.596;17.648;2023-05-16T04:53:31;10.90;92.20
22173;DHT22;11252;50.596;17.648;2023-05-16T04:55:59;11.10;92.20
22173;DHT22;11252;50.596;17.648;2023-05-16T04:58:27;11.30;92.20
22173;DHT22;11252;50.596;17.648;2023-05-16T05:00:54;11.40;92.20
22173;DHT22;11252;50.596;17.648;2023-05-16T05:03:22;11.60;92.20
22173;DHT22;11252;50.596;17.648;2023-05-16T05:05:49;11.80;92.20
22173;DHT22;11252;50.596;17.648;2023-05-16T05:08:18;12.00;92.20
22173;DHT22;11252;50.596;17.648;2023-05-16T05:10:45;12.20;92.20
22173;DHT22;11252;50.596;17.648;2023-05-16T05:13:12;12.30;92.20
22173;DHT22;11252;50.596;17.648;2023-05-16T05:15:40;12.40;92.20
22173;DHT22;11252;50.596;17.648;2023-05-16T05:18:07;12.60;92.20
22173;DHT22;11252;50.596;17.648;2023-05-16T05:20:35;12.80;92.20
22173;DHT22;11252;50.596;17.648;2023-05-16T05:23:02;12.90;92.20
22173;DHT22;11252;50.596;17.648;2023-05-16T05:25:29;13.10;92.20
22173;DHT22;11252;50.596;17.648;2023-05-16T05:27:57;13.20;92.20
22173;DHT22;11252;50.596;17.648;2023-05-16T05:30:24;13.50;92.20
22173;DHT22;11252;50.596;17.648;2023-05-16T05:32:52;13.70;92.20
22173;DHT22;11252;50.596;17.648;2023-05-16T05:35:21;13.90;92.20
22173;DHT22;11252;50.596;17.648;2023-05-16T05:37:48;14.00;92.20
22173;DHT22;11252;50.596;17.648;2023-05-16T05:40:16;14.30;92.20
22173;DHT22;11252;50.596;17.648;2023-05-16T05:42:43;14.40;92.20
22173;DHT22;11252;50.596;17.648;2023-05-16T05:45:14;14.60;92.20
22173;DHT22;11252;50.596;17.648;2023-05-16T05:47:42;14.70;92.20
22173;DHT22;11252;50.596;17.648;2023-05-16T05:50:10;14.80;92.20
22173;DHT22;11252;50.596;17.648;2023-05-16T05:52:39;14.90;92.20
22173;DHT22;11252;50.596;17.648;2023-05-16T05:55:06;15.20;92.20
22173;DHT22;11252;50.596;17.648;2023-05-16T05:57:34;15.40;92.20
22173;DHT22;11252;50.596;17.648;2023-05-16T06:00:01;15.50;92.20
22173;DHT22;11252;50.596;17.648;2023-05-16T06:02:31;15.80;92.20
22173;DHT22;11252;50.596;17.648;2023-05-16T06:04:58;16.00;92.20
22173;DHT22;11252;50.596;17.648;2023-05-16T06:07:26;16.10;92.20
22173;DHT22;11252;50.596;17.648;2023-05-16T06:09:53;16.40;92.20
22173;DHT22;11252;50.596;17.648;2023-05-16T06:12:22;16.60;92.20
22173;DHT22;11252;50.596;17.648;2023-05-16T06:14:49;16.80;92.20
22173;DHT22;11252;50.596;17.648;2023-05-16T06:17:17;16.90;92.20
22173;DHT22;11252;50.596;17.648;2023-05-16T06:19:45;17.00;92.20
22173;DHT22;11252;50.596;17.648;2023-05-16T06:22:12;17.10;92.20
22173;DHT22;11252;50.596;17.648;2023-05-16T06:24:40;17.30;92.20
22173;DHT22;11252;50.596;17.648;2023-05-16T06:27:07;17.40;92.20
22173;DHT22;11252;50.596;17.648;2023-05-16T06:29:35;17.30;92.20
22173;DHT22;11252;50.596;17.648;2023-05-16T06:32:03;17.30;92.20
22173;DHT22;11252;50.596;17.648;2023-05-16T06:34:30;17.40;92.20
22173;DHT22;11252;50.596;17.648;2023-05-16T06:36:58;17.60;91.50
22173;DHT22;11252;50.596;17.648;2023-05-16T06:39:25;17.60;90.90
22173;DHT22;11252;50.596;17.648;2023-05-16T06:41:53;17.60;91.60
22173;DHT22;11252;50.596;17.648;2023-05-16T06:44:22;17.90;91.40
22173;DHT22;11252;50.596;17.648;2023-05-16T06:46:50;18.10;91.70
22173;DHT22;11252;50.596;17.648;2023-05-16T06:49:17;18.20;91.00
22173;DHT22;11252;50.596;17.648;2023-05-16T06:51:44;18.40;90.20
22173;DHT22;11252;50.596;17.648;2023-05-16T06:54:12;18.40;89.90
22173;DHT22;11252;50.596;17.648;2023-05-16T06:56:39;18.30;90.20
22173;DHT22;11252;50.596;17.648;2023-05-16T06:59:06;18.40;91.30
22173;DHT22;11252;50.596;17.648;2023-05-16T07:01:34;18.20;90.40
22173;DHT22;11252;50.596;17.648;2023-05-16T07:04:02;18.30;92.20
22173;DHT22;11252;50.596;17.648;2023-05-16T07:06:29;18.50;91.60
22173;DHT22;11252;50.596;17.648;2023-05-16T07:08:57;18.60;90.00
22173;DHT22;11252;50.596;17.648;2023-05-16T07:11:24;18.80;90.30
22173;DHT22;11252;50.596;17.648;2023-05-16T07:13:52;19.00;89.90
22173;DHT22;11252;50.596;17.648;2023-05-16T07:16:20;19.20;89.70
22173;DHT22;11252;50.596;17.648;2023-05-16T07:18:47;19.50;89.30
22173;DHT22;11252;50.596;17.648;2023-05-16T07:21:18;19.80;88.70
22173;DHT22;11252;50.596;17.648;2023-05-16T07:23:46;20.10;87.90
22173;DHT22;11252;50.596;17.648;2023-05-16T07:26:13;20.50;87.60
22173;DHT22;11252;50.596;17.648;2023-05-16T07:28:41;20.50;85.80
22173;DHT22;11252;50.596;17.648;2023-05-16T07:31:09;20.40;85.70
22173;DHT22;11252;50.596;17.648;2023-05-16T07:33:37;20.40;86.30
22173;DHT22;11252;50.596;17.648;2023-05-16T07:36:05;20.20;86.50
22173;DHT22;11252;50.596;17.648;2023-05-16T07:38:42;20.40;87.70
22173;DHT22;11252;50.596;17.648;2023-05-16T07:41:10;20.50;87.30
22173;DHT22;11252;50.596;17.648;2023-05-16T07:43:38;20.60;86.10
22173;DHT22;11252;50.596;17.648;2023-05-16T07:46:05;20.70;85.90
22173;DHT22;11252;50.596;17.648;2023-05-16T07:48:33;20.80;85.70
22173;DHT22;11252;50.596;17.648;2023-05-16T07:51:01;21.00;85.60
22173;DHT22;11252;50.596;17.648;2023-05-16T07:53:28;21.40;83.80
22173;DHT22;11252;50.596;17.648;2023-05-16T07:55:56;21.40;84.30
22173;DHT22;11252;50.596;17.648;2023-05-16T07:58:23;21.40;84.30
22173;DHT22;11252;50.596;17.648;2023-05-16T08:00:51;21.40;85.00
22173;DHT22;11252;50.596;17.648;2023-05-16T08:03:18;21.70;83.40
22173;DHT22;11252;50.596;17.648;2023-05-16T08:05:46;21.80;84.30
22173;DHT22;11252;50.596;17.648;2023-05-16T08:08:16;21.70;84.00
22173;DHT22;11252;50.596;17.648;2023-05-16T08:10:43;21.80;84.30
22173;DHT22;11252;50.596;17.648;2023-05-16T08:13:11;21.90;83.30
22173;DHT22;11252;50.596;17.648;2023-05-16T08:15:38;22.00;83.40
22173;DHT22;11252;50.596;17.648;2023-05-16T08:18:14;22.00;83.30
22173;DHT22;11252;50.596;17.648;2023-05-16T08:20:44;22.10;83.60
22173;DHT22;11252;50.596;17.648;2023-05-16T08:23:11;21.80;82.10
22173;DHT22;11252;50.596;17.648;2023-05-16T08:25:39;21.20;83.20
22173;DHT22;11252;50.596;17.648;2023-05-16T08:28:06;21.10;84.80
22173;DHT22;11252;50.596;17.648;2023-05-16T08:30:33;21.40;83.90
22173;DHT22;11252;50.596;17.648;2023-05-16T08:33:01;21.80;83.30
22173;DHT22;11252;50.596;17.648;2023-05-16T08:35:31;22.10;83.50
22173;DHT22;11252;50.596;17.648;2023-05-16T08:37:59;22.30;82.70
22173;DHT22;11252;50.596;17.648;2023-05-16T08:40:27;22.10;83.10
22173;DHT22;11252;50.596;17.648;2023-05-16T08:42:55;22.10;83.20
22173;DHT22;11252;50.596;17.648;2023-05-16T08:45:23;22.20;82.50
22173;DHT22;11252;50.596;17.648;2023-05-16T08:47:53;22.10;82.60
22173;DHT22;11252;50.596;17.648;2023-05-16T08:50:22;21.60;83.40
22173;DHT22;11252;50.596;17.648;2023-05-16T08:52:53;21.30;83.80
22173;DHT22;11252;50.596;17.648;2023-05-16T08:55:22;21.30;84.60
22173;DHT22;11252;50.596;17.648;2023-05-16T08:57:50;21.20;83.70
22173;DHT22;11252;50.596;17.648;2023-05-16T09:00:19;21.30;84.60
22173;DHT22;11252;50.596;17.648;2023-05-16T09:02:49;21.40;82.50
22173;DHT22;11252;50.596;17.648;2023-05-16T09:05:21;21.40;84.20
22173;DHT22;11252;50.596;17.648;2023-05-16T09:07:49;21.60;84.40
22173;DHT22;11252;50.596;17.648;2023-05-16T09:10:17;21.90;82.90
22173;DHT22;11252;50.596;17.648;2023-05-16T09:12:45;22.00;84.20
22173;DHT22;11252;50.596;17.648;2023-05-16T09:15:13;21.60;83.30
22173;DHT22;11252;50.596;17.648;2023-05-16T09:17:45;21.50;84.10
22173;DHT22;11252;50.596;17.648;2023-05-16T09:20:16;21.90;82.80
22173;DHT22;11252;50.596;17.648;2023-05-16T09:22:54;22.10;84.40
22173;DHT22;11252;50.596;17.648;2023-05-16T09:25:25;22.60;83.20
22173;DHT22;11252;50.596;17.648;2023-05-16T09:27:58;23.10;81.80
22173;DHT22;11252;50.596;17.648;2023-05-16T09:30:31;23.60;81.80
22173;DHT22;11252;50.596;17.648;2023-05-16T09:33:00;23.50;78.70
22173;DHT22;11252;50.596;17.648;2023-05-16T09:35:28;23.60;80.80
22173;DHT22;11252;50.596;17.648;2023-05-16T09:37:58;23.70;77.90
22173;DHT22;11252;50.596;17.648;2023-05-16T09:40:26;24.00;79.10
22173;DHT22;11252;50.596;17.648;2023-05-16T09:43:04;24.40;79.30
22173;DHT22;11252;50.596;17.648;2023-05-16T09:45:32;24.70;76.50
22173;DHT22;11252;50.596;17.648;2023-05-16T09:48:06;24.20;78.50
22173;DHT22;11252;50.596;17.648;2023-05-16T09:50:35;23.90;78.50
22173;DHT22;11252;50.596;17.648;2023-05-16T09:53:03;23.60;78.40
22173;DHT22;11252;50.596;17.648;2023-05-16T09:55:31;23.70;79.30
22173;DHT22;11252;50.596;17.648;2023-05-16T09:57:59;24.20;78.10
22173;DHT22;11252;50.596;17.648;2023-05-16T10:00:32;24.80;76.80
22173;DHT22;11252;50.596;17.648;2023-05-16T10:03:00;24.90;76.70
22173;DHT22;11252;50.596;17.648;2023-05-16T10:05:32;25.30;76.40
22173;DHT22;11252;50.596;17.648;2023-05-16T10:08:01;25.90;74.90
22173;DHT22;11252;50.596;17.648;2023-05-16T10:10:32;26.00;74.00
22173;DHT22;11252;50.596;17.648;2023-05-16T10:13:05;25.70;74.10
22173;DHT22;11252;50.596;17.648;2023-05-16T10:15:36;25.80;73.50
22173;DHT22;11252;50.596;17.648;2023-05-16T10:18:05;26.20;72.40
22173;DHT22;11252;50.596;17.648;2023-05-16T10:20:40;26.10;73.10
22173;DHT22;11252;50.596;17.648;2023-05-16T10:23:13;25.80;71.90
22173;DHT22;11252;50.596;17.648;2023-05-16T10:25:44;25.20;73.90
22173;DHT22;11252;50.596;17.648;2023-05-16T10:28:12;24.80;74.40
22173;DHT22;11252;50.596;17.648;2023-05-16T10:30:42;24.60;74.50
22173;DHT22;11252;50.596;17.648;2023-05-16T10:33:14;24.60;75.00
22173;DHT22;11252;50.596;17.648;2023-05-16T10:35:43;24.40;73.90
22173;DHT22;11252;50.596;17.648;2023-05-16T10:38:14;24.10;75.00
22173;DHT22;11252;50.596;17.648;2023-05-16T10:40:42;24.10;74.20
22173;DHT22;11252;50.596;17.648;2023-05-16T10:43:22;23.90;75.10
22173;DHT22;11252;50.596;17.648;2023-05-16T10:45:55;24.00;76.00
22173;DHT22;11252;50.596;17.648;2023-05-16T10:48:34;24.00;75.20
22173;DHT22;11252;50.596;17.648;2023-05-16T10:51:10;23.50;74.90
22173;DHT22;11252;50.596;17.648;2023-05-16T10:53:51;23.40;76.70
22173;DHT22;11252;50.596;17.648;2023-05-16T10:56:26;23.40;75.40
22173;DHT22;11252;50.596;17.648;2023-05-16T10:58:54;23.20;77.30
22173;DHT22;11252;50.596;17.648;2023-05-16T11:12:02;22.60;80.20
22173;DHT22;11252;50.596;17.648;2023-05-16T11:14:41;22.40;77.50
22173;DHT22;11252;50.596;17.648;2023-05-16T11:17:14;22.60;79.40
22173;DHT22;11252;50.596;17.648;2023-05-16T11:19:43;22.70;79.30
22173;DHT22;11252;50.596;17.648;2023-05-16T11:27:33;22.30;79.50
22173;DHT22;11252;50.596;17.648;2023-05-16T11:32:36;22.60;79.30
22173;DHT22;11252;50.596;17.648;2023-05-16T11:35:07;22.80;77.90
22173;DHT22;11252;50.596;17.648;2023-05-16T11:37:38;23.00;78.00
22173;DHT22;11252;50.596;17.648;2023-05-16T11:40:10;23.00;77.70
22173;DHT22;11252;50.596;17.648;2023-05-16T11:42:42;23.00;78.00
22173;DHT22;11252;50.596;17.648;2023-05-16T11:45:18;23.10;78.60
22173;DHT22;11252;50.596;17.648;2023-05-16T11:47:47;23.10;75.90
22173;DHT22;11252;50.596;17.648;2023-05-16T11:50:17;23.20;77.20
22173;DHT22;11252;50.596;17.648;2023-05-16T11:52:52;23.10;76.80
22173;DHT22;11252;50.596;17.648;2023-05-16T11:55:24;23.10;77.60
22173;DHT22;11252;50.596;17.648;2023-05-16T11:58:08;23.30;77.40
22173;DHT22;11252;50.596;17.648;2023-05-16T12:00:36;23.60;76.70
22173;DHT22;11252;50.596;17.648;2023-05-16T12:03:13;23.90;76.60
22173;DHT22;11252;50.596;17.648;2023-05-16T12:05:54;24.10;76.50
22173;DHT22;11252;50.596;17.648;2023-05-16T12:08:23;23.80;76.80
22173;DHT22;11252;50.596;17.648;2023-05-16T12:10:53;23.90;77.40
22173;DHT22;11252;50.596;17.648;2023-05-16T12:13:22;23.80;75.60
22173;DHT22;11252;50.596;17.648;2023-05-16T12:15:50;23.90;74.80
22173;DHT22;11252;50.596;17.648;2023-05-16T12:18:18;23.70;76.20
22173;DHT22;11252;50.596;17.648;2023-05-16T12:20:49;23.50;76.20
22173;DHT22;11252;50.596;17.648;2023-05-16T12:23:17;23.40;78.20
22173;DHT22;11252;50.596;17.648;2023-05-16T12:25:45;23.10;77.50
22173;DHT22;11252;50.596;17.648;2023-05-16T12:28:13;22.90;78.00
22173;DHT22;11252;50.596;17.648;2023-05-16T12:30:43;22.90;78.60
22173;DHT22;11252;50.596;17.648;2023-05-16T12:33:13;22.80;78.90
22173;DHT22;11252;50.596;17.648;2023-05-16T12:35:43;22.70;78.70
22173;DHT22;11252;50.596;17.648;2023-05-16T12:38:13;22.60;78.90
22173;DHT22;11252;50.596;17.648;2023-05-16T12:40:42;22.50;79.50
22173;DHT22;11252;50.596;17.648;2023-05-16T12:43:14;22.50;79.60
22173;DHT22;11252;50.596;17.648;2023-05-16T12:45:49;22.30;79.80
22173;DHT22;11252;50.596;17.648;2023-05-16T12:48:19;22.20;81.40
22173;DHT22;11252;50.596;17.648;2023-05-16T12:50:46;22.30;80.70
22173;DHT22;11252;50.596;17.648;2023-05-16T12:53:16;22.30;80.20
22173;DHT22;11252;50.596;17.648;2023-05-16T12:55:44;22.10;80.30
22173;DHT22;11252;50.596;17.648;2023-05-16T12:58:12;22.10;81.00
22173;DHT22;11252;50.596;17.648;2023-05-16T13:00:39;21.90;82.10
22173;DHT22;11252;50.596;17.648;2023-05-16T13:03:07;21.80;81.90
22173;DHT22;11252;50.596;17.648;2023-05-16T13:05:38;21.50;81.50
22173;DHT22;11252;50.596;17.648;2023-05-16T13:08:05;21.20;82.40
22173;DHT22;11252;50.596;17.648;2023-05-16T13:10:33;21.10;84.10
22173;DHT22;11252;50.596;17.648;2023-05-16T13:13:02;21.10;84.90
22173;DHT22;11252;50.596;17.648;2023-05-16T13:15:30;21.10;85.30
22173;DHT22;11252;50.596;17.648;2023-05-16T13:17:58;21.10;83.80
22173;DHT22;11252;50.596;17.648;2023-05-16T13:20:25;20.90;85.20
22173;DHT22;11252;50.596;17.648;2023-05-16T13:22:55;20.80;84.70
22173;DHT22;11252;50.596;17.648;2023-05-16T13:25:23;20.80;84.50
22173;DHT22;11252;50.596;17.648;2023-05-16T13:27:50;20.70;85.00
22173;DHT22;11252;50.596;17.648;2023-05-16T13:30:17;20.50;85.20
22173;DHT22;11252;50.596;17.648;2023-05-16T13:32:45;20.30;85.70
22173;DHT22;11252;50.596;17.648;2023-05-16T13:35:12;20.10;86.70
22173;DHT22;11252;50.596;17.648;2023-05-16T13:37:40;20.00;86.70
22173;DHT22;11252;50.596;17.648;2023-05-16T13:40:08;19.90;87.00
22173;DHT22;11252;50.596;17.648;2023-05-16T13:42:38;19.80;87.10
22173;DHT22;11252;50.596;17.648;2023-05-16T13:45:06;19.80;87.90
22173;DHT22;11252;50.596;17.648;2023-05-16T13:47:34;19.80;88.30
22173;DHT22;11252;50.596;17.648;2023-05-16T13:50:02;19.80;87.80
22173;DHT22;11252;50.596;17.648;2023-05-16T13:52:34;19.60;88.50
22173;DHT22;11252;50.596;17.648;2023-05-16T13:55:04;19.50;90.10
22173;DHT22;11252;50.596;17.648;2023-05-16T13:57:32;19.30;90.60
22173;DHT22;11252;50.596;17.648;2023-05-16T13:59:59;19.20;91.10
22173;DHT22;11252;50.596;17.648;2023-05-16T14:02:47;19.20;91.30
22173;DHT22;11252;50.596;17.648;2023-05-16T14:05:14;19.00;91.50
22173;DHT22;11252;50.596;17.648;2023-05-16T14:07:42;19.00;91.90
22173;DHT22;11252;50.596;17.648;2023-05-16T14:10:12;18.80;91.70
22173;DHT22;11252;50.596;17.648;2023-05-16T14:12:40;18.70;92.20
22173;DHT22;11252;50.596;17.648;2023-05-16T14:15:08;18.70;92.20
22173;DHT22;11252;50.596;17.648;2023-05-16T14:17:36;18.60;92.20
22173;DHT22;11252;50.596;17.648;2023-05-16T14:20:04;18.60;92.20
22173;DHT22;11252;50.596;17.648;2023-05-16T14:22:37;18.60;92.20
22173;DHT22;11252;50.596;17.648;2023-05-16T14:25:06;18.60;92.20
22173;DHT22;11252;50.596;17.648;2023-05-16T14:27:46;18.40;92.20
22173;DHT22;11252;50.596;17.648;2023-05-16T14:30:17;18.30;92.20
22173;DHT22;11252;50.596;17.648;2023-05-16T14:32:44;18.10;92.20
22173;DHT22;11252;50.596;17.648;2023-05-16T14:35:12;17.90;92.20
22173;DHT22;11252;50.596;17.648;2023-05-16T14:37:39;17.80;92.20
22173;DHT22;11252;50.596;17.648;2023-05-16T14:40:07;17.60;92.20
22173;DHT22;11252;50.596;17.648;2023-05-16T14:42:37;17.50;92.20
22173;DHT22;11252;50.596;17.648;2023-05-16T14:45:06;17.40;92.20
22173;DHT22;11252;50.596;17.648;2023-05-16T14:47:34;17.40;92.20
22173;DHT22;11252;50.596;17.648;2023-05-16T14:50:02;17.30;92.20
22173;DHT22;11252;50.596;17.648;2023-05-16T14:52:29;17.20;92.20
22173;DHT22;11252;50.596;17.648;2023-05-16T14:54:57;17.20;92.20
22173;DHT22;11252;50.596;17.648;2023-05-16T14:57:24;17.10;92.20
22173;DHT22;11252;50.596;17.648;2023-05-16T14:59:52;16.90;92.20
22173;DHT22;11252;50.596;17.648;2023-05-16T15:02:19;16.70;92.20
22173;DHT22;11252;50.596;17.648;2023-05-16T15:04:47;16.60;92.20
22173;DHT22;11252;50.596;17.648;2023-05-16T15:07:15;16.50;92.20
22173;DHT22;11252;50.596;17.648;2023-05-16T15:09:42;16.40;92.20
22173;DHT22;11252;50.596;17.648;2023-05-16T15:12:10;16.40;92.20
22173;DHT22;11252;50.596;17.648;2023-05-16T15:14:38;16.30;92.20
22173;DHT22;11252;50.596;17.648;2023-05-16T15:17:05;16.20;92.20
22173;DHT22;11252;50.596;17.648;2023-05-16T15:19:35;16.20;92.20
22173;DHT22;11252;50.596;17.648;2023-05-16T15:22:02;16.20;92.20
22173;DHT22;11252;50.596;17.648;2023-05-16T15:24:33;16.10;92.20
22173;DHT22;11252;50.596;17.648;2023-05-16T15:27:01;16.00;92.20
22173;DHT22;11252;50.596;17.648;2023-05-16T15:29:31;15.90;92.20
22173;DHT22;11252;50.596;17.648;2023-05-16T15:32:02;15.80;92.20
22173;DHT22;11252;50.596;17.648;2023-05-16T15:34:29;15.80;92.20
22173;DHT22;11252;50.596;17.648;2023-05-16T15:36:58;15.80;92.20
22173;DHT22;11252;50.596;17.648;2023-05-16T15:39:25;15.70;92.20
22173;DHT22;11252;50.596;17.648;2023-05-16T15:41:53;15.60;92.20
22173;DHT22;11252;50.596;17.648;2023-05-16T15:44:23;15.60;92.20
22173;DHT22;11252;50.596;17.648;2023-05-16T15:46:51;15.50;92.20
22173;DHT22;11252;50.596;17.648;2023-05-16T15:49:18;15.50;92.20
22173;DHT22;11252;50.596;17.648;2023-05-16T15:51:49;15.40;92.20
22173;DHT22;11252;50.596;17.648;2023-05-16T15:54:17;15.30;92.20
22173;DHT22;11252;50.596;17.648;2023-05-16T15:56:44;15.20;92.20
22173;DHT22;11252;50.596;17.648;2023-05-16T15:59:12;15.20;92.20
22173;DHT22;11252;50.596;17.648;2023-05-16T16:01:42;15.10;92.20